Terminal Aerodrome Forecast
Issued by NWS

Home | Current Version | Previous Version | Text Only | Print | Product List | Glossary On
Versions: 1 2 3 4 5 6 7 8 9 10 11 12 13 14 15
000
FTUS46 KSEW 261400 AAA
TAFBFI
TAF AMD
KBFI 261423Z 2614/2712 14008KT 5SM BR SCT002
      TEMPO 2614/2616 2SM BR OVC002
     FM261900 16006KT P6SM SKC
     FM270000 16006KT P6SM BKN200
     FM270900 16006KT 5SM BR BKN200=

USA.gov is the U.S. government's official web portal to all federal, state and local government web resources and services.